sensor_id;sensor_type;location;lat;lon;timestamp;pressure;altitude;pressure_sealevel;temperature;humidity
35778;BME280;21899;42.662;23.316;2023-07-31T00:01:52;94100.66;;;21.58;95.48
35778;BME280;21899;42.662;23.316;2023-07-31T00:04:17;94098.72;;;21.50;97.94
35778;BME280;21899;42.662;23.316;2023-07-31T00:06:42;94098.16;;;21.37;98.55
35778;BME280;21899;42.662;23.316;2023-07-31T00:09:08;94099.53;;;21.32;99.78
35778;BME280;21899;42.662;23.316;2023-07-31T00:11:33;94095.16;;;21.26;100.00
35778;BME280;21899;42.662;23.316;2023-07-31T00:13:59;94099.06;;;21.34;100.00
35778;BME280;21899;42.662;23.316;2023-07-31T00:16:24;94103.25;;;21.44;99.53
35778;BME280;21899;42.662;23.316;2023-07-31T00:18:50;94106.88;;;21.50;98.55
35778;BME280;21899;42.662;23.316;2023-07-31T00:21:15;94103.56;;;21.46;97.90
35778;BME280;21899;42.662;23.316;2023-07-31T00:23:40;94090.56;;;21.41;99.41
35778;BME280;21899;42.662;23.316;2023-07-31T00:26:06;94094.88;;;21.24;100.00
35778;BME280;21899;42.662;23.316;2023-07-31T00:28:31;94104.59;;;21.07;100.00
35778;BME280;21899;42.662;23.316;2023-07-31T00:30:56;94088.91;;;20.74;100.00
35778;BME280;21899;42.662;23.316;2023-07-31T00:33:22;94077.75;;;20.54;100.00
35778;BME280;21899;42.662;23.316;2023-07-31T00:35:48;94068.25;;;20.32;100.00
35778;BME280;21899;42.662;23.316;2023-07-31T00:38:13;94062.66;;;20.26;100.00
35778;BME280;21899;42.662;23.316;2023-07-31T00:40:39;94057.81;;;20.12;100.00
35778;BME280;21899;42.662;23.316;2023-07-31T00:43:04;94052.97;;;20.07;100.00
35778;BME280;21899;42.662;23.316;2023-07-31T00:45:30;94056.78;;;20.46;100.00
35778;BME280;21899;42.662;23.316;2023-07-31T00:47:56;94066.91;;;20.45;100.00
35778;BME280;21899;42.662;23.316;2023-07-31T00:50:24;94074.88;;;20.58;100.00
35778;BME280;21899;42.662;23.316;2023-07-31T00:52:50;94068.06;;;20.71;100.00
35778;BME280;21899;42.662;23.316;2023-07-31T00:55:15;94068.69;;;20.76;100.00
35778;BME280;21899;42.662;23.316;2023-07-31T00:57:41;94066.41;;;20.74;100.00
35778;BME280;21899;42.662;23.316;2023-07-31T01:00:08;94059.28;;;20.77;100.00
35778;BME280;21899;42.662;23.316;2023-07-31T01:02:33;94050.97;;;20.80;100.00
35778;BME280;21899;42.662;23.316;2023-07-31T01:05:00;94056.69;;;20.91;100.00
35778;BME280;21899;42.662;23.316;2023-07-31T01:10:16;94053.41;;;20.78;100.00
35778;BME280;21899;42.662;23.316;2023-07-31T01:12:45;94048.25;;;20.80;100.00
35778;BME280;21899;42.662;23.316;2023-07-31T01:15:11;94052.34;;;20.76;100.00
35778;BME280;21899;42.662;23.316;2023-07-31T01:17:38;94045.56;;;20.71;100.00
35778;BME280;21899;42.662;23.316;2023-07-31T01:20:06;94038.75;;;20.76;100.00
35778;BME280;21899;42.662;23.316;2023-07-31T01:28:06;94040.88;;;20.81;100.00
35778;BME280;21899;42.662;23.316;2023-07-31T01:30:34;94046.00;;;20.79;100.00
35778;BME280;21899;42.662;23.316;2023-07-31T01:33:03;94037.84;;;20.69;100.00
35778;BME280;21899;42.662;23.316;2023-07-31T01:35:36;94049.34;;;20.73;100.00
35778;BME280;21899;42.662;23.316;2023-07-31T01:38:02;94043.59;;;20.71;100.00
35778;BME280;21899;42.662;23.316;2023-07-31T01:40:28;94044.03;;;20.79;100.00
35778;BME280;21899;42.662;23.316;2023-07-31T01:42:53;94052.03;;;20.83;100.00
35778;BME280;21899;42.662;23.316;2023-07-31T01:45:19;94032.41;;;20.79;100.00
35778;BME280;21899;42.662;23.316;2023-07-31T01:47:45;94044.81;;;20.70;100.00
35778;BME280;21899;42.662;23.316;2023-07-31T01:50:10;94035.28;;;20.66;100.00
35778;BME280;21899;42.662;23.316;2023-07-31T01:52:36;94038.19;;;20.62;100.00
35778;BME280;21899;42.662;23.316;2023-07-31T01:55:01;94038.75;;;20.66;100.00
35778;BME280;21899;42.662;23.316;2023-07-31T01:57:26;94039.38;;;20.61;100.00
35778;BME280;21899;42.662;23.316;2023-07-31T01:59:52;94043.28;;;20.69;100.00
35778;BME280;21899;42.662;23.316;2023-07-31T02:02:19;94044.22;;;20.66;100.00
35778;BME280;21899;42.662;23.316;2023-07-31T02:04:45;94053.72;;;20.71;100.00
35778;BME280;21899;42.662;23.316;2023-07-31T02:07:10;94046.00;;;20.69;100.00
35778;BME280;21899;42.662;23.316;2023-07-31T02:09:35;94043.63;;;20.62;100.00
35778;BME280;21899;42.662;23.316;2023-07-31T02:12:01;94051.59;;;20.75;100.00
35778;BME280;21899;42.662;23.316;2023-07-31T02:14:26;94052.16;;;20.88;100.00
35778;BME280;21899;42.662;23.316;2023-07-31T02:16:52;94052.63;;;20.87;100.00
35778;BME280;21899;42.662;23.316;2023-07-31T02:19:17;94060.16;;;20.92;100.00
35778;BME280;21899;42.662;23.316;2023-07-31T02:21:43;94051.25;;;20.91;100.00
35778;BME280;21899;42.662;23.316;2023-07-31T02:24:08;94049.91;;;20.87;100.00
35778;BME280;21899;42.662;23.316;2023-07-31T02:26:33;94063.34;;;20.99;100.00
35778;BME280;21899;42.662;23.316;2023-07-31T02:28:59;94057.88;;;21.08;100.00
35778;BME280;21899;42.662;23.316;2023-07-31T02:31:24;94059.09;;;21.07;100.00
35778;BME280;21899;42.662;23.316;2023-07-31T02:33:49;94049.56;;;21.12;100.00
35778;BME280;21899;42.662;23.316;2023-07-31T02:36:15;94058.28;;;21.16;100.00
35778;BME280;21899;42.662;23.316;2023-07-31T02:38:40;94048.22;;;21.07;100.00
35778;BME280;21899;42.662;23.316;2023-07-31T02:41:06;94057.41;;;21.19;100.00
35778;BME280;21899;42.662;23.316;2023-07-31T02:43:31;94044.06;;;21.21;100.00
35778;BME280;21899;42.662;23.316;2023-07-31T02:45:56;94047.41;;;21.16;100.00
35778;BME280;21899;42.662;23.316;2023-07-31T02:48:22;94053.28;;;21.23;100.00
35778;BME280;21899;42.662;23.316;2023-07-31T02:50:48;94056.84;;;20.97;100.00
35778;BME280;21899;42.662;23.316;2023-07-31T02:53:13;94063.81;;;20.98;100.00
35778;BME280;21899;42.662;23.316;2023-07-31T02:55:39;94062.88;;;21.01;100.00
35778;BME280;21899;42.662;23.316;2023-07-31T02:58:04;94078.59;;;21.47;100.00
35778;BME280;21899;42.662;23.316;2023-07-31T03:00:30;94070.25;;;21.51;100.00
35778;BME280;21899;42.662;23.316;2023-07-31T03:02:55;94087.94;;;21.55;100.00
35778;BME280;21899;42.662;23.316;2023-07-31T03:05:21;94089.88;;;21.64;100.00
35778;BME280;21899;42.662;23.316;2023-07-31T03:07:46;94092.72;;;21.69;100.00
35778;BME280;21899;42.662;23.316;2023-07-31T03:10:11;94087.41;;;21.75;100.00
35778;BME280;21899;42.662;23.316;2023-07-31T03:12:37;94095.13;;;21.76;100.00
35778;BME280;21899;42.662;23.316;2023-07-31T03:15:03;94077.09;;;21.79;100.00
35778;BME280;21899;42.662;23.316;2023-07-31T03:17:28;94094.69;;;21.69;100.00
35778;BME280;21899;42.662;23.316;2023-07-31T03:19:54;94082.59;;;21.70;100.00
35778;BME280;21899;42.662;23.316;2023-07-31T03:22:19;94091.78;;;21.72;100.00
35778;BME280;21899;42.662;23.316;2023-07-31T03:24:44;94088.66;;;21.65;100.00
35778;BME280;21899;42.662;23.316;2023-07-31T03:27:10;94090.00;;;21.69;100.00
35778;BME280;21899;42.662;23.316;2023-07-31T03:29:35;94094.22;;;21.79;100.00
35778;BME280;21899;42.662;23.316;2023-07-31T03:32:01;94091.31;;;21.74;100.00
35778;BME280;21899;42.662;23.316;2023-07-31T03:34:26;94096.78;;;21.83;100.00
35778;BME280;21899;42.662;23.316;2023-07-31T03:36:51;94096.94;;;21.70;100.00
35778;BME280;21899;42.662;23.316;2023-07-31T03:39:18;94111.88;;;21.84;100.00
35778;BME280;21899;42.662;23.316;2023-07-31T03:41:43;94101.31;;;21.77;100.00
35778;BME280;21899;42.662;23.316;2023-07-31T03:44:09;94110.63;;;21.94;100.00
35778;BME280;21899;42.662;23.316;2023-07-31T03:46:34;94110.66;;;21.85;100.00
35778;BME280;21899;42.662;23.316;2023-07-31T03:49:01;94103.84;;;21.89;100.00
35778;BME280;21899;42.662;23.316;2023-07-31T03:51:26;94107.25;;;21.99;100.00
35778;BME280;21899;42.662;23.316;2023-07-31T03:53:51;94113.09;;;22.07;100.00
35778;BME280;21899;42.662;23.316;2023-07-31T03:56:17;94122.50;;;22.06;100.00
35778;BME280;21899;42.662;23.316;2023-07-31T03:58:42;94125.75;;;21.95;100.00
35778;BME280;21899;42.662;23.316;2023-07-31T04:01:08;94127.75;;;21.94;100.00
35778;BME280;21899;42.662;23.316;2023-07-31T04:03:33;94127.38;;;21.78;100.00
35778;BME280;21899;42.662;23.316;2023-07-31T04:05:58;94123.72;;;21.81;100.00
35778;BME280;21899;42.662;23.316;2023-07-31T04:08:24;94129.72;;;21.85;100.00
35778;BME280;21899;42.662;23.316;2023-07-31T04:10:50;94134.38;;;21.93;100.00
35778;BME280;21899;42.662;23.316;2023-07-31T04:13:15;94127.84;;;22.00;100.00
35778;BME280;21899;42.662;23.316;2023-07-31T04:15:41;94133.91;;;21.95;100.00
35778;BME280;21899;42.662;23.316;2023-07-31T04:18:06;94125.19;;;21.91;100.00
35778;BME280;21899;42.662;23.316;2023-07-31T04:20:32;94136.38;;;21.93;100.00
35778;BME280;21899;42.662;23.316;2023-07-31T04:22:57;94132.28;;;21.88;100.00
35778;BME280;21899;42.662;23.316;2023-07-31T04:25:23;94135.03;;;21.88;100.00
35778;BME280;21899;42.662;23.316;2023-07-31T04:27:48;94129.09;;;21.90;100.00
35778;BME280;21899;42.662;23.316;2023-07-31T04:30:14;94133.41;;;22.06;100.00
35778;BME280;21899;42.662;23.316;2023-07-31T04:32:39;94131.16;;;22.04;100.00
35778;BME280;21899;42.662;23.316;2023-07-31T04:35:05;94134.06;;;22.01;100.00
35778;BME280;21899;42.662;23.316;2023-07-31T04:37:30;94131.91;;;22.05;100.00
35778;BME280;21899;42.662;23.316;2023-07-31T04:39:56;94133.81;;;22.13;100.00
35778;BME280;21899;42.662;23.316;2023-07-31T04:42:21;94117.94;;;22.12;100.00
35778;BME280;21899;42.662;23.316;2023-07-31T04:44:47;94133.81;;;22.13;100.00
35778;BME280;21899;42.662;23.316;2023-07-31T04:47:12;94134.44;;;22.08;100.00
35778;BME280;21899;42.662;23.316;2023-07-31T04:49:37;94138.06;;;22.14;100.00
35778;BME280;21899;42.662;23.316;2023-07-31T04:52:03;94134.34;;;22.26;100.00
35778;BME280;21899;42.662;23.316;2023-07-31T04:54:29;94127.59;;;22.36;100.00
35778;BME280;21899;42.662;23.316;2023-07-31T04:59:19;94129.22;;;23.34;100.00
35778;BME280;21899;42.662;23.316;2023-07-31T05:01:45;94128.66;;;23.44;100.00
35778;BME280;21899;42.662;23.316;2023-07-31T05:04:13;94121.22;;;23.45;99.14
35778;BME280;21899;42.662;23.316;2023-07-31T05:06:39;94121.69;;;23.43;99.09
35778;BME280;21899;42.662;23.316;2023-07-31T05:09:04;94130.16;;;23.60;98.12
35778;BME280;21899;42.662;23.316;2023-07-31T05:11:30;94128.56;;;23.88;97.17
35778;BME280;21899;42.662;23.316;2023-07-31T05:13:55;94134.28;;;24.59;93.65
35778;BME280;21899;42.662;23.316;2023-07-31T05:16:20;94126.31;;;24.81;88.99
35778;BME280;21899;42.662;23.316;2023-07-31T05:18:46;94121.88;;;25.09;87.88
35778;BME280;21899;42.662;23.316;2023-07-31T05:21:11;94111.53;;;25.44;86.26
35778;BME280;21899;42.662;23.316;2023-07-31T05:23:36;94127.19;;;25.69;84.25
35778;BME280;21899;42.662;23.316;2023-07-31T05:26:04;94126.28;;;26.20;81.67
35778;BME280;21899;42.662;23.316;2023-07-31T05:28:29;94117.63;;;26.33;79.40
35778;BME280;21899;42.662;23.316;2023-07-31T05:31:07;94128.38;;;26.42;78.89
35778;BME280;21899;42.662;23.316;2023-07-31T05:33:33;94139.81;;;26.35;78.10
35778;BME280;21899;42.662;23.316;2023-07-31T05:35:59;94129.47;;;26.08;79.47
35778;BME280;21899;42.662;23.316;2023-07-31T05:38:24;94125.81;;;25.91;79.04
35778;BME280;21899;42.662;23.316;2023-07-31T05:40:50;94124.84;;;25.94;79.57
35778;BME280;21899;42.662;23.316;2023-07-31T05:43:15;94126.28;;;26.20;78.48
35778;BME280;21899;42.662;23.316;2023-07-31T05:45:42;94124.16;;;26.41;76.26
35778;BME280;21899;42.662;23.316;2023-07-31T05:48:08;94127.53;;;26.25;75.17
35778;BME280;21899;42.662;23.316;2023-07-31T05:50:33;94130.38;;;26.36;74.92
35778;BME280;21899;42.662;23.316;2023-07-31T05:52:58;94125.88;;;26.33;74.71
35778;BME280;21899;42.662;23.316;2023-07-31T05:55:24;94131.09;;;26.31;72.29
35778;BME280;21899;42.662;23.316;2023-07-31T05:57:52;94134.50;;;25.84;73.42
35778;BME280;21899;42.662;23.316;2023-07-31T06:00:18;94140.63;;;25.67;74.82
35778;BME280;21899;42.662;23.316;2023-07-31T06:02:43;94126.78;;;25.51;73.90
35778;BME280;21899;42.662;23.316;2023-07-31T06:05:09;94132.88;;;25.66;74.31
35778;BME280;21899;42.662;23.316;2023-07-31T06:07:34;94137.94;;;25.47;74.53
35778;BME280;21899;42.662;23.316;2023-07-31T06:09:59;94133.38;;;25.64;74.29
35778;BME280;21899;42.662;23.316;2023-07-31T06:12:31;94139.47;;;25.80;73.03
35778;BME280;21899;42.662;23.316;2023-07-31T06:14:57;94138.19;;;26.12;71.34
35778;BME280;21899;42.662;23.316;2023-07-31T06:17:22;94146.03;;;25.93;69.79
35778;BME280;21899;42.662;23.316;2023-07-31T06:19:49;94143.09;;;25.65;70.40
35778;BME280;21899;42.662;23.316;2023-07-31T06:22:33;94137.44;;;25.43;71.58
35778;BME280;21899;42.662;23.316;2023-07-31T06:24:59;94131.34;;;25.08;72.92
35778;BME280;21899;42.662;23.316;2023-07-31T06:27:24;94140.41;;;24.94;74.00
35778;BME280;21899;42.662;23.316;2023-07-31T06:29:50;94129.13;;;25.12;72.47
35778;BME280;21899;42.662;23.316;2023-07-31T06:32:15;94144.78;;;25.32;71.97
35778;BME280;21899;42.662;23.316;2023-07-31T06:34:41;94146.34;;;25.38;71.15
35778;BME280;21899;42.662;23.316;2023-07-31T06:37:06;94139.47;;;25.48;71.08
35778;BME280;21899;42.662;23.316;2023-07-31T06:39:32;94138.50;;;25.51;71.18
35778;BME280;21899;42.662;23.316;2023-07-31T06:41:57;94133.97;;;24.97;73.59
35778;BME280;21899;42.662;23.316;2023-07-31T06:44:23;94140.44;;;24.54;76.05
35778;BME280;21899;42.662;23.316;2023-07-31T06:46:48;94139.13;;;24.49;76.54
35778;BME280;21899;42.662;23.316;2023-07-31T06:49:13;94133.31;;;24.82;76.96
35778;BME280;21899;42.662;23.316;2023-07-31T06:51:40;94139.13;;;25.15;75.07
35778;BME280;21899;42.662;23.316;2023-07-31T06:54:06;94148.47;;;25.29;73.66
35778;BME280;21899;42.662;23.316;2023-07-31T06:56:32;94146.66;;;25.20;74.40
35778;BME280;21899;42.662;23.316;2023-07-31T06:58:57;94136.22;;;25.24;74.06
35778;BME280;21899;42.662;23.316;2023-07-31T07:01:22;94140.44;;;25.20;74.93
35778;BME280;21899;42.662;23.316;2023-07-31T07:03:48;94155.19;;;25.02;73.80
35778;BME280;21899;42.662;23.316;2023-07-31T07:06:16;94155.22;;;24.82;75.44
35778;BME280;21899;42.662;23.316;2023-07-31T07:08:41;94139.19;;;24.55;76.20
35778;BME280;21899;42.662;23.316;2023-07-31T07:11:07;94138.66;;;24.31;77.17
35778;BME280;21899;42.662;23.316;2023-07-31T07:13:32;94148.84;;;24.30;77.07
35778;BME280;21899;42.662;23.316;2023-07-31T07:15:58;94153.00;;;24.26;77.00
35778;BME280;21899;42.662;23.316;2023-07-31T07:18:23;94143.53;;;24.07;78.15
35778;BME280;21899;42.662;23.316;2023-07-31T07:20:51;94165.34;;;24.01;76.98
35778;BME280;21899;42.662;23.316;2023-07-31T07:23:16;94154.00;;;23.94;77.86
35778;BME280;21899;42.662;23.316;2023-07-31T07:25:43;94141.66;;;23.98;76.82
35778;BME280;21899;42.662;23.316;2023-07-31T07:28:08;94126.84;;;24.05;76.20
35778;BME280;21899;42.662;23.316;2023-07-31T07:30:34;94137.69;;;24.34;75.72
35778;BME280;21899;42.662;23.316;2023-07-31T07:33:00;94141.16;;;24.14;75.81
35778;BME280;21899;42.662;23.316;2023-07-31T07:35:25;94136.38;;;24.09;77.42
35778;BME280;21899;42.662;23.316;2023-07-31T07:37:50;94127.75;;;24.57;76.05
35778;BME280;21899;42.662;23.316;2023-07-31T07:40:16;94131.00;;;24.75;75.00
35778;BME280;21899;42.662;23.316;2023-07-31T07:42:41;94142.66;;;24.96;73.64
35778;BME280;21899;42.662;23.316;2023-07-31T07:45:07;94146.31;;;25.13;72.58
35778;BME280;21899;42.662;23.316;2023-07-31T07:47:35;94148.19;;;25.01;72.60
35778;BME280;21899;42.662;23.316;2023-07-31T07:50:00;94141.06;;;25.09;70.74
35778;BME280;21899;42.662;23.316;2023-07-31T07:52:26;94146.00;;;25.05;71.25
35778;BME280;21899;42.662;23.316;2023-07-31T07:54:51;94146.00;;;25.05;70.29
35778;BME280;21899;42.662;23.316;2023-07-31T07:57:16;94152.72;;;25.04;70.05
35778;BME280;21899;42.662;23.316;2023-07-31T07:59:42;94158.84;;;25.19;69.29
35778;BME280;21899;42.662;23.316;2023-07-31T08:02:07;94151.94;;;24.78;69.99
35778;BME280;21899;42.662;23.316;2023-07-31T08:04:33;94164.13;;;24.77;69.20
35778;BME280;21899;42.662;23.316;2023-07-31T08:06:58;94157.78;;;24.91;69.96
35778;BME280;21899;42.662;23.316;2023-07-31T08:09:23;94155.78;;;25.12;69.35
35778;BME280;21899;42.662;23.316;2023-07-31T08:11:49;94141.88;;;25.41;69.13
35778;BME280;21899;42.662;23.316;2023-07-31T08:14:14;94158.19;;;25.55;68.56
35778;BME280;21899;42.662;23.316;2023-07-31T08:16:39;94156.66;;;25.80;66.14
35778;BME280;21899;42.662;23.316;2023-07-31T08:19:05;94160.13;;;26.06;64.37
35778;BME280;21899;42.662;23.316;2023-07-31T08:21:31;94162.03;;;26.00;64.04
35778;BME280;21899;42.662;23.316;2023-07-31T08:23:57;94159.94;;;25.84;65.13
35778;BME280;21899;42.662;23.316;2023-07-31T08:26:22;94160.06;;;26.01;64.50
35778;BME280;21899;42.662;23.316;2023-07-31T08:28:48;94156.44;;;25.84;65.35
35778;BME280;21899;42.662;23.316;2023-07-31T08:31:13;94149.56;;;25.99;63.64
35778;BME280;21899;42.662;23.316;2023-07-31T08:33:39;94163.34;;;26.05;62.27
35778;BME280;21899;42.662;23.316;2023-07-31T08:36:05;94151.47;;;26.19;62.24
35778;BME280;21899;42.662;23.316;2023-07-31T08:38:32;94152.06;;;26.34;62.44
35778;BME280;21899;42.662;23.316;2023-07-31T08:40:57;94162.97;;;26.23;61.98
35778;BME280;21899;42.662;23.316;2023-07-31T08:43:26;94157.53;;;25.97;61.92
35778;BME280;21899;42.662;23.316;2023-07-31T08:45:52;94153.94;;;26.17;62.29
35778;BME280;21899;42.662;23.316;2023-07-31T08:48:20;94147.13;;;26.07;61.08
35778;BME280;21899;42.662;23.316;2023-07-31T08:50:46;94144.00;;;26.25;60.96
35778;BME280;21899;42.662;23.316;2023-07-31T08:53:11;94154.03;;;26.28;59.95
35778;BME280;21899;42.662;23.316;2023-07-31T08:55:38;94145.53;;;26.26;59.25
35778;BME280;21899;42.662;23.316;2023-07-31T08:58:04;94153.63;;;26.04;60.04
35778;BME280;21899;42.662;23.316;2023-07-31T09:00:32;94146.19;;;26.10;59.20
35778;BME280;21899;42.662;23.316;2023-07-31T09:03:08;94152.78;;;26.29;58.89
35778;BME280;21899;42.662;23.316;2023-07-31T09:05:35;94157.59;;;26.45;57.46
35778;BME280;21899;42.662;23.316;2023-07-31T09:08:02;94160.88;;;26.49;57.68
35778;BME280;21899;42.662;23.316;2023-07-31T09:10:29;94157.53;;;26.81;57.39
35778;BME280;21899;42.662;23.316;2023-07-31T09:12:55;94146.59;;;26.98;55.79
35778;BME280;21899;42.662;23.316;2023-07-31T09:15:21;94154.88;;;27.15;55.03
35778;BME280;21899;42.662;23.316;2023-07-31T09:17:58;94156.84;;;27.03;54.66
35778;BME280;21899;42.662;23.316;2023-07-31T09:20:24;94141.34;;;26.94;54.87
35778;BME280;21899;42.662;23.316;2023-07-31T09:22:49;94141.63;;;27.02;54.46
35778;BME280;21899;42.662;23.316;2023-07-31T09:25:23;94129.94;;;27.29;54.17
35778;BME280;21899;42.662;23.316;2023-07-31T09:28:10;94139.72;;;27.58;54.61
35778;BME280;21899;42.662;23.316;2023-07-31T09:30:51;94131.50;;;27.63;54.25
35778;BME280;21899;42.662;23.316;2023-07-31T09:33:20;94127.25;;;27.68;54.35
35778;BME280;21899;42.662;23.316;2023-07-31T09:35:47;94126.25;;;27.76;53.64
35778;BME280;21899;42.662;23.316;2023-07-31T09:38:14;94116.97;;;27.74;53.74
35778;BME280;21899;42.662;23.316;2023-07-31T09:40:40;94131.47;;;27.41;54.95
35778;BME280;21899;42.662;23.316;2023-07-31T09:43:09;94117.91;;;27.21;55.31
35778;BME280;21899;42.662;23.316;2023-07-31T09:45:37;94123.94;;;27.31;55.54
35778;BME280;21899;42.662;23.316;2023-07-31T09:48:02;94119.47;;;27.55;54.28
35778;BME280;21899;42.662;23.316;2023-07-31T09:50:28;94124.47;;;27.79;53.41
35778;BME280;21899;42.662;23.316;2023-07-31T09:52:54;94121.47;;;27.77;54.33
35778;BME280;21899;42.662;23.316;2023-07-31T09:55:20;94117.75;;;27.63;53.36
35778;BME280;21899;42.662;23.316;2023-07-31T09:57:47;94116.00;;;27.55;53.81
35778;BME280;21899;42.662;23.316;2023-07-31T10:00:14;94101.47;;;27.71;53.01
35778;BME280;21899;42.662;23.316;2023-07-31T10:02:41;94121.22;;;27.64;53.79
35778;BME280;21899;42.662;23.316;2023-07-31T10:05:07;94109.50;;;27.63;52.62
35778;BME280;21899;42.662;23.316;2023-07-31T10:07:39;94112.00;;;27.61;53.20
35778;BME280;21899;42.662;23.316;2023-07-31T10:10:07;94112.00;;;27.61;52.90
35778;BME280;21899;42.662;23.316;2023-07-31T10:12:34;94114.84;;;26.80;54.60
35778;BME280;21899;42.662;23.316;2023-07-31T10:15:01;94115.56;;;26.70;54.31
35778;BME280;21899;42.662;23.316;2023-07-31T10:17:26;94111.88;;;26.95;54.01
35778;BME280;21899;42.662;23.316;2023-07-31T10:19:53;94120.41;;;27.08;52.73
35778;BME280;21899;42.662;23.316;2023-07-31T10:22:22;94117.66;;;27.08;50.57
35778;BME280;21899;42.662;23.316;2023-07-31T10:24:48;94111.41;;;27.02;49.80
35778;BME280;21899;42.662;23.316;2023-07-31T10:27:15;94098.94;;;27.23;48.92
35778;BME280;21899;42.662;23.316;2023-07-31T10:29:43;94102.19;;;27.27;48.51
35778;BME280;21899;42.662;23.316;2023-07-31T10:32:09;94113.72;;;27.64;49.46
35778;BME280;21899;42.662;23.316;2023-07-31T10:34:38;94098.22;;;27.78;49.00
35778;BME280;21899;42.662;23.316;2023-07-31T10:37:30;94102.97;;;27.99;48.55
35778;BME280;21899;42.662;23.316;2023-07-31T10:40:05;94106.47;;;27.83;47.34
35778;BME280;21899;42.662;23.316;2023-07-31T10:42:32;94097.00;;;27.51;48.19
35778;BME280;21899;42.662;23.316;2023-07-31T10:45:01;94112.50;;;27.60;47.70
35778;BME280;21899;42.662;23.316;2023-07-31T10:47:27;94107.25;;;27.56;48.09
35778;BME280;21899;42.662;23.316;2023-07-31T10:49:52;94090.22;;;27.85;47.72
35778;BME280;21899;42.662;23.316;2023-07-31T10:52:21;94091.63;;;28.36;43.07
35778;BME280;21899;42.662;23.316;2023-07-31T10:54:49;94087.28;;;28.63;41.50
35778;BME280;21899;42.662;23.316;2023-07-31T10:57:23;94089.47;;;28.81;40.43
35778;BME280;21899;42.662;23.316;2023-07-31T10:59:50;94080.28;;;28.62;40.76
35778;BME280;21899;42.662;23.316;2023-07-31T11:02:28;94083.47;;;28.71;40.98
35778;BME280;21899;42.662;23.316;2023-07-31T11:05:08;94079.75;;;28.69;40.10
35778;BME280;21899;42.662;23.316;2023-07-31T11:07:50;94079.25;;;28.65;40.76
35778;BME280;21899;42.662;23.316;2023-07-31T11:10:19;94067.78;;;28.61;40.13
35778;BME280;21899;42.662;23.316;2023-07-31T11:12:47;94078.31;;;28.46;39.65
35778;BME280;21899;42.662;23.316;2023-07-31T11:15:13;94074.47;;;27.80;40.79
35778;BME280;21899;42.662;23.316;2023-07-31T11:17:39;94071.50;;;27.45;40.26
35778;BME280;21899;42.662;23.316;2023-07-31T11:20:06;94064.72;;;27.79;40.65
35778;BME280;21899;42.662;23.316;2023-07-31T11:22:34;94061.72;;;27.99;39.88
35778;BME280;21899;42.662;23.316;2023-07-31T11:24:59;94082.66;;;28.25;39.36
35778;BME280;21899;42.662;23.316;2023-07-31T11:27:28;94064.47;;;27.99;40.38
35778;BME280;21899;42.662;23.316;2023-07-31T11:30:00;94064.00;;;27.68;39.78
35778;BME280;21899;42.662;23.316;2023-07-31T11:32:25;94074.50;;;27.75;40.68
35778;BME280;21899;42.662;23.316;2023-07-31T11:34:54;94061.94;;;28.12;38.72
35778;BME280;21899;42.662;23.316;2023-07-31T11:37:20;94066.88;;;28.31;38.92
35778;BME280;21899;42.662;23.316;2023-07-31T11:40:01;94063.28;;;28.47;38.95
35778;BME280;21899;42.662;23.316;2023-07-31T11:42:27;94070.31;;;28.48;39.46
35778;BME280;21899;42.662;23.316;2023-07-31T11:44:52;94063.81;;;28.51;40.27
35778;BME280;21899;42.662;23.316;2023-07-31T11:47:18;94063.66;;;28.21;40.85
35778;BME280;21899;42.662;23.316;2023-07-31T11:49:43;94062.44;;;28.11;41.53
35778;BME280;21899;42.662;23.316;2023-07-31T11:52:09;94064.31;;;28.44;41.37
35778;BME280;21899;42.662;23.316;2023-07-31T11:54:36;94061.75;;;28.62;39.77
35778;BME280;21899;42.662;23.316;2023-07-31T11:57:02;94066.16;;;28.82;39.07
35778;BME280;21899;42.662;23.316;2023-07-31T11:59:28;94064.00;;;28.64;38.66
35778;BME280;21899;42.662;23.316;2023-07-31T12:01:54;94053.31;;;28.49;38.96
35778;BME280;21899;42.662;23.316;2023-07-31T12:04:20;94064.28;;;28.55;39.54
35778;BME280;21899;42.662;23.316;2023-07-31T12:06:47;94053.31;;;28.49;39.42
35778;BME280;21899;42.662;23.316;2023-07-31T12:09:14;94051.06;;;28.42;39.26
35778;BME280;21899;42.662;23.316;2023-07-31T12:11:46;94052.03;;;28.45;39.58
35778;BME280;21899;42.662;23.316;2023-07-31T12:14:23;94045.75;;;28.55;40.12
35778;BME280;21899;42.662;23.316;2023-07-31T12:17:04;94040.50;;;28.57;40.09
35778;BME280;21899;42.662;23.316;2023-07-31T12:19:30;94049.53;;;28.47;39.84
35778;BME280;21899;42.662;23.316;2023-07-31T12:21:56;94041.84;;;28.29;41.32
35778;BME280;21899;42.662;23.316;2023-07-31T12:24:21;94041.53;;;28.43;42.00
35778;BME280;21899;42.662;23.316;2023-07-31T12:26:48;94039.59;;;28.27;42.00
35778;BME280;21899;42.662;23.316;2023-07-31T12:29:14;94029.75;;;28.54;41.65
35778;BME280;21899;42.662;23.316;2023-07-31T12:31:41;94044.25;;;28.49;40.31
35778;BME280;21899;42.662;23.316;2023-07-31T12:34:17;94027.56;;;28.30;40.76
35778;BME280;21899;42.662;23.316;2023-07-31T12:36:43;94047.66;;;28.14;40.63
35778;BME280;21899;42.662;23.316;2023-07-31T12:39:09;94049.44;;;28.00;40.05
35778;BME280;21899;42.662;23.316;2023-07-31T12:41:34;94050.97;;;27.85;40.50
35778;BME280;21899;42.662;23.316;2023-07-31T12:43:59;94031.41;;;28.10;40.20
35778;BME280;21899;42.662;23.316;2023-07-31T12:46:25;94028.34;;;28.25;39.62
35778;BME280;21899;42.662;23.316;2023-07-31T12:48:50;94034.66;;;28.09;39.59
35778;BME280;21899;42.662;23.316;2023-07-31T12:51:16;94030.84;;;28.29;39.73
35778;BME280;21899;42.662;23.316;2023-07-31T12:53:41;94024.38;;;28.21;39.17